createdAt,value
2023-02-03T00:01:16.940Z,3.86
2023-02-03T00:04:20.094Z,3.83
2023-02-03T00:07:22.780Z,3.81
2023-02-03T00:10:26.340Z,3.72
2023-02-03T00:13:29.421Z,3.89
2023-02-03T00:16:32.553Z,3.78
2023-02-03T00:19:35.087Z,3.74
2023-02-03T00:22:38.494Z,3.70
2023-02-03T00:25:41.249Z,3.73
2023-02-03T00:28:44.827Z,3.67
2023-02-03T00:31:47.504Z,3.69
2023-02-03T00:34:50.661Z,3.64
2023-02-03T00:37:57.551Z,3.66
2023-02-03T00:41:00.704Z,3.70
2023-02-03T00:44:03.250Z,3.71
2023-02-03T00:47:06.784Z,3.68
2023-02-03T00:50:10.229Z,3.61
2023-02-03T00:53:13.737Z,3.68
2023-02-03T00:56:16.316Z,3.56
2023-02-03T00:59:20.343Z,3.56
2023-02-03T01:02:22.959Z,3.51
2023-02-03T01:05:28.482Z,3.49
2023-02-03T01:08:32.340Z,3.50
2023-02-03T01:11:35.644Z,3.43
2023-02-03T01:14:38.636Z,3.37
2023-02-03T01:17:41.792Z,3.45
2023-02-03T01:20:44.465Z,3.42
2023-02-03T01:23:47.899Z,3.36
2023-02-03T01:26:50.566Z,3.41
2023-02-03T01:29:53.883Z,3.37
2023-02-03T01:32:56.625Z,3.36
2023-02-03T01:36:01.992Z,3.28
2023-02-03T01:39:06.273Z,3.26
2023-02-03T01:42:12.813Z,3.27
2023-02-03T01:45:15.337Z,3.28
2023-02-03T01:48:18.444Z,3.27
2023-02-03T01:51:22.382Z,3.27
2023-02-03T01:54:31.637Z,3.27
2023-02-03T01:59:45.196Z,3.26
2023-02-03T02:02:50.182Z,3.17
2023-02-03T02:06:12.878Z,3.18
2023-02-03T02:09:16.588Z,3.14
2023-02-03T02:12:19.446Z,3.14
2023-02-03T02:15:27.805Z,3.15
2023-02-03T02:18:33.751Z,3.15
2023-02-03T02:21:53.240Z,3.15
2023-02-03T02:25:03.666Z,3.11
2023-02-03T02:28:34.529Z,3.04
2023-02-03T02:31:43.670Z,3.06
2023-02-03T02:35:25.276Z,3.02
2023-02-03T02:38:28.669Z,3.02
2023-02-03T02:41:44.872Z,3.02
2023-02-03T02:44:58.930Z,3.07
2023-02-03T02:48:10.445Z,3.02
2023-02-03T02:51:15.941Z,3.06
2023-02-03T02:54:24.125Z,3.04
2023-02-03T02:57:29.010Z,3.08
2023-02-03T03:00:35.596Z,3.12
2023-02-03T03:03:42.802Z,3.09
2023-02-03T03:06:50.541Z,3.14
2023-02-03T03:10:00.742Z,3.11
2023-02-03T03:13:08.471Z,3.08
2023-02-03T03:16:14.450Z,3.09
2023-02-03T03:19:23.677Z,3.09
2023-02-03T03:22:35.314Z,3.02
2023-02-03T03:25:49.378Z,3.10
2023-02-03T03:28:58.714Z,3.02
2023-02-03T03:32:02.628Z,2.93
2023-02-03T03:35:07.670Z,2.89
2023-02-03T03:38:19.512Z,2.88
2023-02-03T03:41:57.976Z,2.95
2023-02-03T03:45:12.002Z,2.95
2023-02-03T03:48:27.550Z,2.93
2023-02-03T03:51:37.294Z,2.91
2023-02-03T03:54:42.873Z,2.88
2023-02-03T03:57:54.725Z,2.80
2023-02-03T04:01:02.773Z,2.87
2023-02-03T04:04:09.567Z,2.92
2023-02-03T04:07:15.634Z,2.93
2023-02-03T04:10:19.220Z,2.82
2023-02-03T04:13:21.861Z,2.82
2023-02-03T04:16:25.127Z,2.88
2023-02-03T04:19:27.791Z,2.77
2023-02-03T04:22:30.928Z,2.87
2023-02-03T04:25:33.419Z,2.84
2023-02-03T04:28:36.610Z,2.79
2023-02-03T04:31:39.613Z,2.75
2023-02-03T04:34:42.645Z,2.71
2023-02-03T04:37:45.678Z,2.73
2023-02-03T04:40:48.912Z,2.74
2023-02-03T04:43:51.463Z,2.89
2023-02-03T04:46:54.622Z,2.75
2023-02-03T04:49:57.185Z,2.75
2023-02-03T04:53:01.215Z,2.75
2023-02-03T04:56:03.928Z,2.96
2023-02-03T04:59:07.140Z,2.83
2023-02-03T05:02:09.777Z,2.77
2023-02-03T05:05:12.987Z,2.84
2023-02-03T05:08:16.047Z,2.84
2023-02-03T05:11:19.615Z,2.92
2023-02-03T05:14:22.223Z,3.03
2023-02-03T05:17:25.448Z,3.06
2023-02-03T05:20:28.612Z,3.01
2023-02-03T05:23:33.187Z,3.13
2023-02-03T05:26:37.062Z,3.04
2023-02-03T05:29:40.621Z,3.02
2023-02-03T05:32:43.255Z,2.99
2023-02-03T05:35:46.335Z,3.01
2023-02-03T05:38:48.857Z,3.12
2023-02-03T05:41:57.221Z,3.08
2023-02-03T05:45:00.749Z,3.14
2023-02-03T05:48:04.129Z,3.10
2023-02-03T05:51:06.908Z,3.09
2023-02-03T05:54:10.500Z,3.17
2023-02-03T05:57:13.560Z,3.26
2023-02-03T06:00:17.221Z,3.31
2023-02-03T06:03:20.087Z,3.31
2023-02-03T06:06:23.213Z,3.33
2023-02-03T06:09:26.161Z,3.33
2023-02-03T06:12:29.487Z,3.30
2023-02-03T06:15:32.433Z,3.37
2023-02-03T06:18:35.520Z,3.37
2023-02-03T06:21:38.492Z,3.43
2023-02-03T06:24:41.450Z,3.42
2023-02-03T06:27:44.272Z,3.53
2023-02-03T06:30:50.865Z,3.52
2023-02-03T06:33:53.746Z,3.56
2023-02-03T06:36:56.548Z,3.52
2023-02-03T06:39:59.363Z,3.55
2023-02-03T06:43:02.417Z,3.66
2023-02-03T06:46:05.306Z,3.69
2023-02-03T06:49:09.216Z,3.63
2023-02-03T06:52:11.988Z,3.66
2023-02-03T06:59:20.056Z,3.60
2023-02-03T07:06:18.768Z,3.67
2023-02-03T07:13:43.775Z,3.81
2023-02-03T07:17:00.700Z,3.77
2023-02-03T07:20:04.208Z,3.79
2023-02-03T07:23:29.722Z,3.85
2023-02-03T07:26:32.239Z,3.89
2023-02-03T07:29:35.354Z,3.94
2023-02-03T07:32:37.918Z,4.10
2023-02-03T07:35:41.062Z,4.19
2023-02-03T07:38:43.790Z,4.25
2023-02-03T07:41:46.941Z,4.26
2023-02-03T07:44:49.539Z,4.33
2023-02-03T07:47:52.655Z,4.53
2023-02-03T07:50:55.318Z,4.41
2023-02-03T07:53:58.509Z,4.43
2023-02-03T07:57:01.311Z,4.33
2023-02-03T08:00:04.623Z,4.33
2023-02-03T08:03:14.609Z,4.33
2023-02-03T08:06:17.864Z,4.41
2023-02-03T08:09:20.502Z,4.48
2023-02-03T08:12:24.051Z,4.48
2023-02-03T08:15:27.811Z,4.43
2023-02-03T08:18:32.732Z,4.43
2023-02-03T08:21:35.882Z,4.37
2023-02-03T08:24:39.303Z,4.39
2023-02-03T08:27:42.391Z,4.46
2023-02-03T08:30:46.251Z,4.47
2023-02-03T08:33:49.003Z,4.64
2023-02-03T08:36:52.194Z,4.68
2023-02-03T08:39:54.972Z,4.47
2023-02-03T08:42:58.162Z,4.36
2023-02-03T08:46:05.808Z,4.38
2023-02-03T08:49:09.379Z,4.00
2023-02-03T08:52:13.326Z,3.89
2023-02-03T08:55:16.704Z,3.96
2023-02-03T08:58:19.408Z,3.92
2023-02-03T09:01:22.654Z,3.66
2023-02-03T09:04:25.841Z,3.65
2023-02-03T09:07:29.255Z,3.75
2023-02-03T09:10:31.983Z,3.55
2023-02-03T09:13:35.192Z,3.47
2023-02-03T09:16:38.424Z,3.26
2023-02-03T09:19:41.647Z,3.28
2023-02-03T09:22:44.379Z,3.20
2023-02-03T09:25:49.488Z,3.06
2023-02-03T09:28:52.705Z,2.84
2023-02-03T09:31:55.914Z,2.67
2023-02-03T09:34:58.523Z,2.43
2023-02-03T09:38:01.994Z,2.21
2023-02-03T09:41:15.917Z,2.04
2023-02-03T09:44:44.078Z,1.71
2023-02-03T09:47:53.970Z,1.58
2023-02-03T09:50:57.348Z,1.53
2023-02-03T09:54:26.415Z,1.48
2023-02-03T09:57:32.188Z,1.38
2023-02-03T10:00:48.203Z,1.51
2023-02-03T10:04:28.918Z,1.56
2023-02-03T10:07:46.809Z,1.69
2023-02-03T10:11:16.167Z,1.88
2023-02-03T10:14:33.988Z,1.91
2023-02-03T10:17:47.319Z,2.07
2023-02-03T10:21:02.265Z,2.06
2023-02-03T10:24:12.695Z,2.33
2023-02-03T10:27:25.411Z,2.30
2023-02-03T10:30:38.519Z,2.34
2023-02-03T10:33:41.450Z,2.39
2023-02-03T10:36:50.667Z,2.32
2023-02-03T10:39:54.410Z,2.28
2023-02-03T10:43:16.136Z,2.29
2023-02-03T10:46:20.752Z,2.33
2023-02-03T10:49:27.632Z,2.02
2023-02-03T10:52:35.496Z,2.03
2023-02-03T10:55:38.970Z,2.06
2023-02-03T10:58:56.122Z,2.15
2023-02-03T11:01:59.950Z,2.04
2023-02-03T11:05:24.926Z,1.99
2023-02-03T11:08:31.040Z,1.92
2023-02-03T11:11:35.307Z,1.81
2023-02-03T11:14:46.532Z,1.81
2023-02-03T11:17:49.199Z,1.72
2023-02-03T11:20:52.679Z,1.70
2023-02-03T11:24:31.871Z,1.75
2023-02-03T11:27:35.323Z,1.84
2023-02-03T11:30:38.833Z,1.74
2023-02-03T11:33:42.025Z,1.77
2023-02-03T11:36:44.703Z,1.74
2023-02-03T11:39:48.197Z,1.88
2023-02-03T11:42:51.740Z,1.87
2023-02-03T11:46:01.644Z,1.97
2023-02-03T11:49:10.450Z,1.97
2023-02-03T11:52:37.080Z,1.84
2023-02-03T11:55:56.154Z,1.64
2023-02-03T12:00:00.175Z,1.47
2023-02-03T12:03:48.428Z,1.30
2023-02-03T12:08:06.273Z,1.25
2023-02-03T12:13:10.912Z,1.35
2023-02-03T12:21:01.075Z,1.43
2023-02-03T12:28:54.804Z,1.45
2023-02-03T13:02:03.594Z,1.50
2023-02-03T13:05:22.499Z,1.42
2023-02-03T13:08:40.399Z,1.50
2023-02-03T13:12:01.867Z,1.39
2023-02-03T13:15:56.769Z,1.47
2023-02-03T13:19:06.860Z,1.45
2023-02-03T13:22:15.109Z,1.43
2023-02-03T13:25:25.893Z,1.44
2023-02-03T13:28:53.468Z,1.49
2023-02-03T13:37:04.865Z,1.57
2023-02-03T13:44:45.045Z,1.66
2023-02-03T13:48:27.275Z,1.66
2023-02-03T13:51:40.305Z,1.66
2023-02-03T13:55:46.452Z,1.81
2023-02-03T14:08:46.650Z,1.92
2023-02-03T14:12:30.202Z,2.08
2023-02-03T14:15:34.912Z,2.12
2023-02-03T14:18:58.133Z,2.17
2023-02-03T14:28:16.351Z,2.17
2023-02-03T14:31:57.032Z,2.22
2023-02-03T14:35:00.596Z,2.32
2023-02-03T14:38:15.332Z,2.30
2023-02-03T14:42:09.990Z,2.36
2023-02-03T14:46:17.041Z,2.35
2023-02-03T14:49:55.319Z,2.38
2023-02-03T14:53:33.669Z,2.44
2023-02-03T14:57:57.942Z,2.57
2023-02-03T15:01:59.270Z,2.69
2023-02-03T15:06:32.953Z,2.60
2023-02-03T15:10:20.066Z,2.77
2023-02-03T15:14:19.432Z,2.72
2023-02-03T15:22:54.682Z,2.93
2023-02-03T15:26:00.291Z,3.03
2023-02-03T15:29:04.846Z,3.01
2023-02-03T15:32:13.963Z,3.10
2023-02-03T15:35:19.755Z,3.17
2023-02-03T15:38:36.537Z,3.14
2023-02-03T15:41:39.925Z,3.13
2023-02-03T15:44:50.592Z,3.31
2023-02-03T15:48:09.733Z,3.32
2023-02-03T15:51:19.168Z,3.30
2023-02-03T15:54:42.671Z,3.40
2023-02-03T15:57:49.721Z,3.45
2023-02-03T16:00:56.675Z,3.43
2023-02-03T16:04:00.102Z,3.52
2023-02-03T16:07:02.855Z,3.63
2023-02-03T16:10:06.083Z,3.55
2023-02-03T16:13:21.297Z,3.63
2023-02-03T16:16:28.604Z,3.63
2023-02-03T16:19:38.513Z,3.59
2023-02-03T16:22:47.044Z,3.65
2023-02-03T16:26:18.352Z,3.73
2023-02-03T16:29:39.825Z,3.85
2023-02-03T16:33:01.681Z,3.72
2023-02-03T16:36:32.457Z,3.68
2023-02-03T16:39:54.092Z,3.47
2023-02-03T16:43:15.890Z,3.55
2023-02-03T16:46:37.720Z,3.39
2023-02-03T16:49:59.434Z,3.37
2023-02-03T16:53:02.393Z,3.38
2023-02-03T16:56:06.899Z,3.28
2023-02-03T16:59:10.038Z,3.43
2023-02-03T17:02:13.042Z,3.48
2023-02-03T17:05:18.502Z,3.43
2023-02-03T17:08:24.136Z,3.60
2023-02-03T17:11:27.172Z,3.43
2023-02-03T17:14:30.959Z,3.47
2023-02-03T17:17:33.927Z,3.55
2023-02-03T17:20:37.309Z,3.53
2023-02-03T17:23:40.824Z,3.67
2023-02-03T17:26:43.518Z,3.71
2023-02-03T17:29:46.534Z,3.78
2023-02-03T17:32:49.350Z,3.77
2023-02-03T17:36:04.918Z,3.91
2023-02-03T17:55:50.347Z,4.22
2023-02-03T17:58:57.547Z,4.22
2023-02-03T18:02:00.558Z,4.28
2023-02-03T18:05:03.517Z,4.35
2023-02-03T18:08:16.097Z,4.41
2023-02-03T18:11:20.630Z,4.48
2023-02-03T18:14:23.648Z,4.55
2023-02-03T18:17:26.663Z,4.55
2023-02-03T18:20:29.691Z,4.66
2023-02-03T18:23:33.130Z,4.55
2023-02-03T18:26:44.420Z,4.58
2023-02-03T18:29:48.406Z,4.58
2023-02-03T18:32:52.665Z,4.67
2023-02-03T18:35:57.861Z,4.90
2023-02-03T18:39:01.048Z,4.92
2023-02-03T18:42:04.281Z,4.82
2023-02-03T18:45:07.985Z,4.89
2023-02-03T18:48:10.824Z,4.94
2023-02-03T18:51:16.086Z,4.98
2023-02-03T18:54:19.293Z,4.99
2023-02-03T18:57:22.985Z,5.09
2023-02-03T19:00:27.107Z,5.12
2023-02-03T19:03:30.239Z,5.19
2023-02-03T19:06:34.417Z,5.17
2023-02-03T19:09:38.132Z,5.26
2023-02-03T19:12:41.135Z,5.40
2023-02-03T19:15:44.918Z,5.40
2023-02-03T19:18:48.197Z,5.43
2023-02-03T19:21:52.105Z,5.44
2023-02-03T19:24:55.904Z,5.51
2023-02-03T19:27:58.988Z,5.51
2023-02-03T19:31:12.185Z,5.46
2023-02-03T19:34:17.039Z,5.47
2023-02-03T19:37:20.664Z,5.52
2023-02-03T19:40:23.607Z,5.45
2023-02-03T19:43:26.601Z,5.60
2023-02-03T19:46:32.668Z,5.47
2023-02-03T19:49:35.951Z,5.42
2023-02-03T19:52:39.003Z,5.34
2023-02-03T19:55:46.094Z,5.29
2023-02-03T19:58:52.097Z,5.29
2023-02-03T20:01:58.054Z,5.31
2023-02-03T20:05:03.096Z,5.28
2023-02-03T20:08:06.073Z,5.27
2023-02-03T20:11:09.474Z,5.16
2023-02-03T20:14:12.610Z,5.12
2023-02-03T20:17:15.866Z,5.06
2023-02-03T20:20:20.641Z,5.07
2023-02-03T20:23:24.151Z,4.98
2023-02-03T20:26:26.780Z,4.91
2023-02-03T20:29:30.700Z,4.91
2023-02-03T20:32:33.210Z,4.88
2023-02-03T20:35:38.552Z,4.82
2023-02-03T20:38:41.193Z,4.87
2023-02-03T20:41:44.745Z,4.83
2023-02-03T20:44:47.345Z,4.85
2023-02-03T20:47:51.251Z,4.80
2023-02-03T20:50:53.847Z,4.85
2023-02-03T20:53:57.118Z,4.85
2023-02-03T20:56:59.743Z,4.86
2023-02-03T21:00:14.805Z,4.86
2023-02-03T21:03:37.956Z,4.91
2023-02-03T21:06:41.146Z,4.92
2023-02-03T21:09:43.950Z,4.90
2023-02-03T21:12:48.464Z,4.87
2023-02-03T21:15:54.010Z,4.80
2023-02-03T21:19:03.327Z,5.00
2023-02-03T21:22:33.114Z,4.83
2023-02-03T21:25:36.313Z,4.75
2023-02-03T21:31:45.071Z,4.83
2023-02-03T21:34:48.959Z,4.79
2023-02-03T21:38:01.843Z,4.80
2023-02-03T21:41:19.008Z,4.80
2023-02-03T21:44:33.797Z,4.83
2023-02-03T21:47:36.286Z,4.79
2023-02-03T21:50:42.181Z,4.73
2023-02-03T21:54:00.623Z,4.70
2023-02-03T21:57:03.813Z,4.79
2023-02-03T22:00:34.621Z,4.76
2023-02-03T22:03:43.309Z,4.70
2023-02-03T22:06:53.870Z,4.70
2023-02-03T22:09:57.110Z,4.68
2023-02-03T22:12:59.741Z,4.75
2023-02-03T22:16:04.014Z,4.77
2023-02-03T22:19:06.687Z,4.73
2023-02-03T22:22:09.872Z,4.66
2023-02-03T22:25:12.746Z,4.76
2023-02-03T22:28:16.242Z,4.70
2023-02-03T22:31:19.898Z,4.70
2023-02-03T22:34:23.634Z,4.69
2023-02-03T22:37:26.302Z,4.77
2023-02-03T22:40:29.664Z,4.84
2023-02-03T22:43:32.441Z,4.74
2023-02-03T22:46:35.568Z,4.74
2023-02-03T22:49:38.527Z,4.79
2023-02-03T22:52:41.933Z,4.81
2023-02-03T22:55:44.466Z,4.80
2023-02-03T22:58:47.708Z,4.80
2023-02-03T23:01:50.279Z,4.81
2023-02-03T23:04:53.537Z,4.78
2023-02-03T23:07:58.896Z,4.82
2023-02-03T23:11:04.964Z,4.96
2023-02-03T23:14:07.570Z,4.98
2023-02-03T23:17:10.784Z,4.95
2023-02-03T23:20:15.323Z,5.03
2023-02-03T23:23:20.678Z,5.03
2023-02-03T23:26:23.252Z,5.10
2023-02-03T23:29:27.020Z,5.00
2023-02-03T23:32:29.686Z,5.07
2023-02-03T23:35:49.412Z,5.11
2023-02-03T23:38:51.903Z,5.36
2023-02-03T23:41:58.300Z,5.31
2023-02-03T23:45:00.925Z,5.33
2023-02-03T23:48:04.752Z,5.30
2023-02-03T23:51:07.422Z,5.31
2023-02-03T23:54:11.607Z,5.46
2023-02-03T23:57:14.231Z,5.41
